Airfield :
LOGIN :

Register | Disclaimer

   EN    FR    IT 

 










Legend :    VFR   Marginal VFR   IFR   Intensive IFR   Very Intensive IFR
Visi :
Ceiling :
>= 8 km
>= 3000ft
5 to 8 km
1000 to 3000 ft
1500m to 5 km
500 to 1000 ft
800 to 1500m
200 to 500 ft
< 800m
< 200 ft
Symbols :   Thunderstorms  Fog  Heavy snow  Heavy precipitations  Wind > 20 kt
SIGMETs :     Misc.  Thunderstorms  Icing  Turbulence  Mountain Waves  Volcanic Ashes






- Airport Elevation : 663 ft
- IATA code : BZK


UUBP - Bryansk

CURRENT METAR :
  • 071030Z 31004MPS 280V360 9999 SCT026 13/M01 Q1034 R34/CLRD70 NOSIG RMK QFE758/1011

EXPIRED METARs :
  • 071000Z 27004MPS 230V310 9999 BKN026 13/M01 Q1034 R16/CLRD70 NOSIG RMK QFE757/1010
  • 070930Z 28003MPS 9999 SCT026 13/M01 Q1035 R16/CLRD70 NOSIG RMK QFE758/1010
  • 070900Z 26004MPS 220V300 9999 SCT026 12/01 Q1035 R16/CLRD70 NOSIG RMK QFE758/1011
  • 070830Z 25003MPS 9999 FEW033 10/00 Q1035 R16/CLRD70 NOSIG RMK QFE758/1011
  • 070800Z 23002MPS 180V280 9999 SCT033 09/00 Q1036 R16/CLRD70 NOSIG RMK QFE758/1011

TAF TAF UUBP
Valid from the 07 at 09:00 until the 07 at 18:00 UTC


070800Z 0709/0718 23003G08MPS 9999 BKN030



MET'MAP, your aeronautical weather chart ! - Copyright ORBIFLY December 2007 - Disclaimer

ORBIFLY MET'MAP TEAM :

Programming & Development : Alexandra Zaïnal
Concept & original design : Baudouin d'Aumeries
Assistance for programming : Marc-Olivier Méhu
Technical & hardware support : Manuel Goepfert

Contact : metmap@orbifly.com




SOURCES & CREDITS :

   NOAA